sensor_id;sensor_type;location;lat;lon;timestamp;pressure;altitude;pressure_sealevel;temperature
74043;BMP280;62384;53.600;10.040;2022-10-15T00:00:11;100181.91;;;15.45
74043;BMP280;62384;53.600;10.040;2022-10-15T00:02:37;100166.94;;;15.37
74043;BMP280;62384;53.600;10.040;2022-10-15T00:05:02;100181.56;;;15.43
74043;BMP280;62384;53.600;10.040;2022-10-15T00:07:28;100177.69;;;15.44
74043;BMP280;62384;53.600;10.040;2022-10-15T03:52:00;100241.25;;;14.39
74043;BMP280;62384;53.600;10.040;2022-10-15T03:54:25;100233.53;;;14.34
74043;BMP280;62384;53.600;10.040;2022-10-15T03:56:51;100213.91;;;14.23
74043;BMP280;62384;53.600;10.040;2022-10-15T03:59:16;100221.25;;;14.19
74043;BMP280;62384;53.600;10.040;2022-10-15T04:01:42;100221.63;;;14.21
74043;BMP280;62384;53.600;10.040;2022-10-15T04:04:10;100206.19;;;14.21
74043;BMP280;62384;53.600;10.040;2022-10-15T04:06:36;100217.38;;;14.13
74043;BMP280;62384;53.600;10.040;2022-10-15T04:09:01;100202.75;;;14.03
74043;BMP280;62384;53.600;10.040;2022-10-15T04:11:27;100181.59;;;13.77
74043;BMP280;62384;53.600;10.040;2022-10-15T04:13:52;100219.72;;;14.04
74043;BMP280;62384;53.600;10.040;2022-10-15T04:16:20;100250.56;;;14.10
74043;BMP280;62384;53.600;10.040;2022-10-15T04:18:46;100193.19;;;13.74
74043;BMP280;62384;53.600;10.040;2022-10-15T04:21:11;100225.88;;;14.01
74043;BMP280;62384;53.600;10.040;2022-10-15T04:23:36;100241.31;;;14.18
74043;BMP280;62384;53.600;10.040;2022-10-15T04:26:01;100242.09;;;14.15
74043;BMP280;62384;53.600;10.040;2022-10-15T04:28:27;100231.66;;;14.13
74043;BMP280;62384;53.600;10.040;2022-10-15T04:31:01;100224.75;;;14.12
74043;BMP280;62384;53.600;10.040;2022-10-15T04:33:27;100217.78;;;14.08
74043;BMP280;62384;53.600;10.040;2022-10-15T04:36:04;100218.16;;;14.10
74043;BMP280;62384;53.600;10.040;2022-10-15T04:38:30;100212.78;;;14.10
74043;BMP280;62384;53.600;10.040;2022-10-15T04:41:00;100215.09;;;14.11
74043;BMP280;62384;53.600;10.040;2022-10-15T04:43:26;100203.88;;;14.13
74043;BMP280;62384;53.600;10.040;2022-10-15T04:45:55;100224.34;;;14.24
74043;BMP280;62384;53.600;10.040;2022-10-15T04:48:20;100213.94;;;14.16
74043;BMP280;62384;53.600;10.040;2022-10-15T04:50:45;100230.53;;;14.11
74043;BMP280;62384;53.600;10.040;2022-10-15T04:53:11;100223.03;;;14.64
74043;BMP280;62384;53.600;10.040;2022-10-15T04:55:36;100216.88;;;14.60
74043;BMP280;62384;53.600;10.040;2022-10-15T04:58:01;100193.94;;;13.92
74043;BMP280;62384;53.600;10.040;2022-10-15T05:00:26;100236.69;;;14.11
74043;BMP280;62384;53.600;10.040;2022-10-15T05:02:52;100237.09;;;14.06
74043;BMP280;62384;53.600;10.040;2022-10-15T05:05:17;100239.75;;;14.10
74043;BMP280;62384;53.600;10.040;2022-10-15T05:07:42;100242.84;;;14.15
74043;BMP280;62384;53.600;10.040;2022-10-15T05:10:08;100245.91;;;14.21
74043;BMP280;62384;53.600;10.040;2022-10-15T05:12:33;100242.47;;;14.10
74043;BMP280;62384;53.600;10.040;2022-10-15T05:14:58;100240.94;;;14.12
74043;BMP280;62384;53.600;10.040;2022-10-15T05:17:24;100250.97;;;14.15
74043;BMP280;62384;53.600;10.040;2022-10-15T05:19:49;100254.44;;;14.12
74043;BMP280;62384;53.600;10.040;2022-10-15T05:22:18;100255.56;;;14.15
74043;BMP280;62384;53.600;10.040;2022-10-15T05:24:43;100264.47;;;14.12
74043;BMP280;62384;53.600;10.040;2022-10-15T05:27:08;100267.53;;;14.10
74043;BMP280;62384;53.600;10.040;2022-10-15T05:29:34;100266.38;;;14.08
74043;BMP280;62384;53.600;10.040;2022-10-15T05:31:59;100275.63;;;14.10
74043;BMP280;62384;53.600;10.040;2022-10-15T05:34:24;100266.03;;;13.99
74043;BMP280;62384;53.600;10.040;2022-10-15T05:36:53;100262.91;;;13.97
74043;BMP280;62384;53.600;10.040;2022-10-15T05:39:18;100271.00;;;13.97
74043;BMP280;62384;53.600;10.040;2022-10-15T05:41:43;100267.56;;;13.93
74043;BMP280;62384;53.600;10.040;2022-10-15T05:44:09;100267.97;;;13.88
74043;BMP280;62384;53.600;10.040;2022-10-15T05:46:34;100254.47;;;13.81
74043;BMP280;62384;53.600;10.040;2022-10-15T05:49:01;100261.00;;;13.97
74043;BMP280;62384;53.600;10.040;2022-10-15T05:51:26;100274.50;;;13.97
74043;BMP280;62384;53.600;10.040;2022-10-15T05:53:53;100265.25;;;14.02
74043;BMP280;62384;53.600;10.040;2022-10-15T05:56:19;100288.34;;;14.10
74043;BMP280;62384;53.600;10.040;2022-10-15T05:58:53;100291.06;;;14.17
74043;BMP280;62384;53.600;10.040;2022-10-15T06:01:19;100269.06;;;14.08
74043;BMP280;62384;53.600;10.040;2022-10-15T06:03:45;100299.56;;;14.12
74043;BMP280;62384;53.600;10.040;2022-10-15T06:06:21;100308.41;;;14.19
74043;BMP280;62384;53.600;10.040;2022-10-15T06:08:49;100306.09;;;14.11
74043;BMP280;62384;53.600;10.040;2022-10-15T06:11:15;100301.88;;;14.03
74043;BMP280;62384;53.600;10.040;2022-10-15T06:13:43;100293.78;;;13.99
74043;BMP280;62384;53.600;10.040;2022-10-15T06:16:09;100304.53;;;14.13
74043;BMP280;62384;53.600;10.040;2022-10-15T06:18:38;100304.94;;;14.15
74043;BMP280;62384;53.600;10.040;2022-10-15T06:21:05;100304.16;;;14.08
74043;BMP280;62384;53.600;10.040;2022-10-15T06:23:32;100303.03;;;14.02
74043;BMP280;62384;53.600;10.040;2022-10-15T06:26:01;100308.00;;;14.07
74043;BMP280;62384;53.600;10.040;2022-10-15T06:28:27;100296.47;;;14.03
74043;BMP280;62384;53.600;10.040;2022-10-15T06:31:00;100306.88;;;14.01
74043;BMP280;62384;53.600;10.040;2022-10-15T06:33:29;100320.38;;;14.08
74043;BMP280;62384;53.600;10.040;2022-10-15T06:36:02;100326.91;;;14.07
74043;BMP280;62384;53.600;10.040;2022-10-15T06:38:28;100326.94;;;14.10
74043;BMP280;62384;53.600;10.040;2022-10-15T06:40:53;100333.88;;;14.08
74043;BMP280;62384;53.600;10.040;2022-10-15T06:43:19;100327.69;;;14.04
74043;BMP280;62384;53.600;10.040;2022-10-15T06:45:44;100338.50;;;14.21
74043;BMP280;62384;53.600;10.040;2022-10-15T06:48:10;100338.09;;;14.23
74043;BMP280;62384;53.600;10.040;2022-10-15T06:50:40;100343.13;;;14.21
74043;BMP280;62384;53.600;10.040;2022-10-15T06:53:11;100338.50;;;14.28
74043;BMP280;62384;53.600;10.040;2022-10-15T06:55:36;100331.97;;;14.12
74043;BMP280;62384;53.600;10.040;2022-10-15T06:58:03;100337.72;;;14.14
74043;BMP280;62384;53.600;10.040;2022-10-15T07:00:29;100330.03;;;14.12
74043;BMP280;62384;53.600;10.040;2022-10-15T07:02:54;100343.50;;;14.30
74043;BMP280;62384;53.600;10.040;2022-10-15T07:05:20;100338.50;;;14.28
74043;BMP280;62384;53.600;10.040;2022-10-15T07:07:52;100329.63;;;14.24
74043;BMP280;62384;53.600;10.040;2022-10-15T07:10:17;100335.38;;;14.33
74043;BMP280;62384;53.600;10.040;2022-10-15T07:12:43;100329.25;;;14.26
74043;BMP280;62384;53.600;10.040;2022-10-15T07:15:08;100336.16;;;14.20
74043;BMP280;62384;53.600;10.040;2022-10-15T07:17:33;100342.75;;;14.26
74043;BMP280;62384;53.600;10.040;2022-10-15T07:20:00;100357.00;;;14.40
74043;BMP280;62384;53.600;10.040;2022-10-15T07:22:25;100363.97;;;14.41
74043;BMP280;62384;53.600;10.040;2022-10-15T07:24:50;100367.78;;;14.37
74043;BMP280;62384;53.600;10.040;2022-10-15T07:27:16;100370.13;;;14.35
74043;BMP280;62384;53.600;10.040;2022-10-15T07:29:41;100373.59;;;14.39
74043;BMP280;62384;53.600;10.040;2022-10-15T07:32:06;100382.47;;;14.32
74043;BMP280;62384;53.600;10.040;2022-10-15T07:34:31;100372.03;;;14.31
74043;BMP280;62384;53.600;10.040;2022-10-15T07:36:57;100374.75;;;14.34
74043;BMP280;62384;53.600;10.040;2022-10-15T07:39:22;100373.97;;;14.41
74043;BMP280;62384;53.600;10.040;2022-10-15T07:41:48;100370.50;;;14.33
74043;BMP280;62384;53.600;10.040;2022-10-15T07:44:13;100346.97;;;14.27
74043;BMP280;62384;53.600;10.040;2022-10-15T07:46:41;100370.88;;;14.46
74043;BMP280;62384;53.600;10.040;2022-10-15T07:49:07;100377.81;;;14.43
74043;BMP280;62384;53.600;10.040;2022-10-15T07:51:33;100393.63;;;14.48
74043;BMP280;62384;53.600;10.040;2022-10-15T07:53:58;100398.28;;;14.48
74043;BMP280;62384;53.600;10.040;2022-10-15T07:56:24;100391.72;;;14.45
74043;BMP280;62384;53.600;10.040;2022-10-15T07:58:49;100377.81;;;14.40
74043;BMP280;62384;53.600;10.040;2022-10-15T08:01:19;100378.22;;;14.49
74043;BMP280;62384;53.600;10.040;2022-10-15T08:03:45;100384.78;;;14.59
74043;BMP280;62384;53.600;10.040;2022-10-15T08:06:22;100387.06;;;14.60
74043;BMP280;62384;53.600;10.040;2022-10-15T08:08:47;100386.69;;;14.65
74043;BMP280;62384;53.600;10.040;2022-10-15T08:11:14;100397.44;;;14.76
74043;BMP280;62384;53.600;10.040;2022-10-15T08:13:42;100404.00;;;14.85
74043;BMP280;62384;53.600;10.040;2022-10-15T08:16:12;100404.75;;;14.89
74043;BMP280;62384;53.600;10.040;2022-10-15T08:18:38;100410.88;;;15.00
74043;BMP280;62384;53.600;10.040;2022-10-15T08:21:05;100420.50;;;15.15
74043;BMP280;62384;53.600;10.040;2022-10-15T08:23:31;100427.81;;;15.25
74043;BMP280;62384;53.600;10.040;2022-10-15T08:25:58;100443.91;;;15.57
74043;BMP280;62384;53.600;10.040;2022-10-15T08:28:25;100435.41;;;15.55
74043;BMP280;62384;53.600;10.040;2022-10-15T08:30:50;100407.59;;;15.55
74043;BMP280;62384;53.600;10.040;2022-10-15T08:33:15;100462.59;;;15.99
74043;BMP280;62384;53.600;10.040;2022-10-15T08:35:42;100485.72;;;16.14
74043;BMP280;62384;53.600;10.040;2022-10-15T08:38:09;100483.44;;;16.06
74043;BMP280;62384;53.600;10.040;2022-10-15T08:40:34;100483.09;;;16.04
74043;BMP280;62384;53.600;10.040;2022-10-15T08:43:00;100478.84;;;15.99
74043;BMP280;62384;53.600;10.040;2022-10-15T08:45:39;100477.25;;;16.09
74043;BMP280;62384;53.600;10.040;2022-10-15T08:48:11;100473.00;;;16.04
74043;BMP280;62384;53.600;10.040;2022-10-15T08:50:58;100470.00;;;15.88
74043;BMP280;62384;53.600;10.040;2022-10-15T08:53:25;100470.28;;;16.08
74043;BMP280;62384;53.600;10.040;2022-10-15T08:55:55;100483.38;;;16.20
74043;BMP280;62384;53.600;10.040;2022-10-15T08:58:44;100487.50;;;16.35
74043;BMP280;62384;53.600;10.040;2022-10-15T09:01:20;100508.16;;;16.66
74043;BMP280;62384;53.600;10.040;2022-10-15T09:04:05;100507.75;;;16.64
74043;BMP280;62384;53.600;10.040;2022-10-15T09:09:50;100515.63;;;16.92
74043;BMP280;62384;53.600;10.040;2022-10-15T09:12:41;100527.34;;;16.86
74043;BMP280;62384;53.600;10.040;2022-10-15T09:15:04;100535.72;;;16.98
74043;BMP280;62384;53.600;10.040;2022-10-15T09:17:34;100539.63;;;16.94
74043;BMP280;62384;53.600;10.040;2022-10-15T09:20:04;100530.44;;;16.84
74043;BMP280;62384;53.600;10.040;2022-10-15T09:22:32;100547.38;;;17.36
74043;BMP280;62384;53.600;10.040;2022-10-15T09:25:09;100571.13;;;18.16
74043;BMP280;62384;53.600;10.040;2022-10-15T09:27:38;100603.13;;;19.43
74043;BMP280;62384;53.600;10.040;2022-10-15T09:35:42;100663.75;;;24.75
74043;BMP280;62384;53.600;10.040;2022-10-15T09:38:35;100660.19;;;24.29
74043;BMP280;62384;53.600;10.040;2022-10-15T09:41:25;100654.59;;;24.60
74043;BMP280;62384;53.600;10.040;2022-10-15T09:44:11;100652.09;;;23.25
74043;BMP280;62384;53.600;10.040;2022-10-15T09:46:45;100650.75;;;23.08
74043;BMP280;62384;53.600;10.040;2022-10-15T09:49:16;100660.09;;;24.02
74043;BMP280;62384;53.600;10.040;2022-10-15T09:57:01;100653.25;;;23.15
74043;BMP280;62384;53.600;10.040;2022-10-15T09:59:32;100658.34;;;23.25
74043;BMP280;62384;53.600;10.040;2022-10-15T10:02:00;100660.63;;;23.27
74043;BMP280;62384;53.600;10.040;2022-10-15T10:04:29;100659.19;;;24.05
74043;BMP280;62384;53.600;10.040;2022-10-15T10:07:05;100654.59;;;24.60
74043;BMP280;62384;53.600;10.040;2022-10-15T10:09:53;100664.75;;;23.53
74043;BMP280;62384;53.600;10.040;2022-10-15T10:12:40;100652.09;;;24.44
74043;BMP280;62384;53.600;10.040;2022-10-15T10:15:34;100654.63;;;24.78
74043;BMP280;62384;53.600;10.040;2022-10-15T10:18:02;100648.53;;;26.31
74043;BMP280;62384;53.600;10.040;2022-10-15T10:20:32;100639.88;;;26.00
74043;BMP280;62384;53.600;10.040;2022-10-15T10:23:00;100657.75;;;26.28
74043;BMP280;62384;53.600;10.040;2022-10-15T10:27:52;100647.03;;;26.07
74043;BMP280;62384;53.600;10.040;2022-10-15T10:30:18;100638.75;;;26.30
74043;BMP280;62384;53.600;10.040;2022-10-15T10:32:44;100643.28;;;26.19
74043;BMP280;62384;53.600;10.040;2022-10-15T10:35:22;100645.22;;;24.30
74043;BMP280;62384;53.600;10.040;2022-10-15T10:37:47;100648.50;;;22.93
74043;BMP280;62384;53.600;10.040;2022-10-15T10:40:34;100643.84;;;22.47
74043;BMP280;62384;53.600;10.040;2022-10-15T10:43:20;100638.06;;;22.20
74043;BMP280;62384;53.600;10.040;2022-10-15T10:45:56;100642.53;;;22.14
74043;BMP280;62384;53.600;10.040;2022-10-15T10:51:20;100636.41;;;21.03
74043;BMP280;62384;53.600;10.040;2022-10-15T10:56:21;100615.00;;;20.40
74043;BMP280;62384;53.600;10.040;2022-10-15T10:58:51;100622.47;;;20.20
74043;BMP280;62384;53.600;10.040;2022-10-15T11:01:19;100615.06;;;19.69
74043;BMP280;62384;53.600;10.040;2022-10-15T11:03:44;100612.34;;;19.30
74043;BMP280;62384;53.600;10.040;2022-10-15T11:10:02;100595.41;;;19.19
74043;BMP280;62384;53.600;10.040;2022-10-15T11:12:43;100601.41;;;19.10
74043;BMP280;62384;53.600;10.040;2022-10-15T11:15:17;100597.78;;;18.97
74043;BMP280;62384;53.600;10.040;2022-10-15T11:20:22;100601.00;;;19.12
74043;BMP280;62384;53.600;10.040;2022-10-15T11:23:21;100607.09;;;19.39
74043;BMP280;62384;53.600;10.040;2022-10-15T11:25:56;100606.19;;;19.26
74043;BMP280;62384;53.600;10.040;2022-10-15T11:31:15;100599.63;;;19.23
74043;BMP280;62384;53.600;10.040;2022-10-15T11:39:33;100594.25;;;19.20
74043;BMP280;62384;53.600;10.040;2022-10-15T11:42:14;100586.09;;;19.20
74043;BMP280;62384;53.600;10.040;2022-10-15T11:45:06;100597.00;;;19.39
74043;BMP280;62384;53.600;10.040;2022-10-15T11:47:52;100595.59;;;19.31
74043;BMP280;62384;53.600;10.040;2022-10-15T11:50:26;100599.72;;;19.39
74043;BMP280;62384;53.600;10.040;2022-10-15T11:58:50;100595.19;;;19.10
74043;BMP280;62384;53.600;10.040;2022-10-15T12:01:24;100591.84;;;19.02
74043;BMP280;62384;53.600;10.040;2022-10-15T12:03:56;100587.03;;;19.10
74043;BMP280;62384;53.600;10.040;2022-10-15T12:06:32;100590.31;;;19.01
74043;BMP280;62384;53.600;10.040;2022-10-15T12:09:00;100585.88;;;19.11
74043;BMP280;62384;53.600;10.040;2022-10-15T12:11:48;100586.88;;;19.40
74043;BMP280;62384;53.600;10.040;2022-10-15T12:19:36;100575.41;;;19.48
74043;BMP280;62384;53.600;10.040;2022-10-15T12:22:07;100562.28;;;19.43
74043;BMP280;62384;53.600;10.040;2022-10-15T12:29:44;100557.09;;;19.49
74043;BMP280;62384;53.600;10.040;2022-10-15T12:32:23;100548.38;;;19.18
74043;BMP280;62384;53.600;10.040;2022-10-15T12:34:57;100556.78;;;19.08
74043;BMP280;62384;53.600;10.040;2022-10-15T12:37:26;100550.69;;;19.00
74043;BMP280;62384;53.600;10.040;2022-10-15T12:40:01;100544.81;;;18.82
74043;BMP280;62384;53.600;10.040;2022-10-15T12:42:30;100533.78;;;18.89
74043;BMP280;62384;53.600;10.040;2022-10-15T12:45:01;100533.38;;;18.91
74043;BMP280;62384;53.600;10.040;2022-10-15T12:50:28;100520.97;;;18.90
74043;BMP280;62384;53.600;10.040;2022-10-15T12:55:36;100529.53;;;18.88
74043;BMP280;62384;53.600;10.040;2022-10-15T12:58:33;100546.00;;;19.01
74043;BMP280;62384;53.600;10.040;2022-10-15T13:01:28;100545.59;;;19.02
74043;BMP280;62384;53.600;10.040;2022-10-15T13:03:55;100555.75;;;18.98
74043;BMP280;62384;53.600;10.040;2022-10-15T13:11:46;100558.09;;;19.00
74043;BMP280;62384;53.600;10.040;2022-10-15T13:16:42;100555.19;;;18.87
74043;BMP280;62384;53.600;10.040;2022-10-15T13:19:16;100566.13;;;18.83
74043;BMP280;62384;53.600;10.040;2022-10-15T13:21:53;100548.88;;;18.70
74043;BMP280;62384;53.600;10.040;2022-10-15T13:24:25;100541.44;;;18.74
74043;BMP280;62384;53.600;10.040;2022-10-15T13:26:53;100544.91;;;18.75
74043;BMP280;62384;53.600;10.040;2022-10-15T13:29:22;100549.03;;;18.63
74043;BMP280;62384;53.600;10.040;2022-10-15T13:31:54;100540.13;;;18.59
74043;BMP280;62384;53.600;10.040;2022-10-15T13:36:53;100544.53;;;18.53
74043;BMP280;62384;53.600;10.040;2022-10-15T13:39:21;100540.63;;;18.31
74043;BMP280;62384;53.600;10.040;2022-10-15T13:41:48;100530.03;;;18.37
74043;BMP280;62384;53.600;10.040;2022-10-15T13:44:23;100523.66;;;18.47
74043;BMP280;62384;53.600;10.040;2022-10-15T13:46:49;100524.78;;;18.49
74043;BMP280;62384;53.600;10.040;2022-10-15T13:49:16;100527.50;;;18.49
74043;BMP280;62384;53.600;10.040;2022-10-15T13:51:45;100500.19;;;18.33
74043;BMP280;62384;53.600;10.040;2022-10-15T13:54:16;100515.50;;;18.47
74043;BMP280;62384;53.600;10.040;2022-10-15T13:56:48;100499.13;;;18.50
74043;BMP280;62384;53.600;10.040;2022-10-15T13:59:16;100499.84;;;18.54
74043;BMP280;62384;53.600;10.040;2022-10-15T14:01:51;100489.81;;;18.71
74043;BMP280;62384;53.600;10.040;2022-10-15T14:04:20;100485.00;;;18.78
74043;BMP280;62384;53.600;10.040;2022-10-15T14:07:01;100501.47;;;18.71
74043;BMP280;62384;53.600;10.040;2022-10-15T14:09:34;100499.66;;;18.42
74043;BMP280;62384;53.600;10.040;2022-10-15T14:12:10;100497.22;;;18.47
74043;BMP280;62384;53.600;10.040;2022-10-15T14:14:40;100488.50;;;18.36
74043;BMP280;62384;53.600;10.040;2022-10-15T14:17:21;100483.41;;;18.38
74043;BMP280;62384;53.600;10.040;2022-10-15T14:19:50;100473.53;;;18.48
74043;BMP280;62384;53.600;10.040;2022-10-15T14:22:21;100464.19;;;18.49
74043;BMP280;62384;53.600;10.040;2022-10-15T14:24:50;100470.13;;;18.44
74043;BMP280;62384;53.600;10.040;2022-10-15T14:27:19;100473.59;;;18.44
74043;BMP280;62384;53.600;10.040;2022-10-15T14:30:11;100474.00;;;18.43
74043;BMP280;62384;53.600;10.040;2022-10-15T14:32:45;100468.00;;;18.32
74043;BMP280;62384;53.600;10.040;2022-10-15T14:35:24;100468.13;;;18.25
74043;BMP280;62384;53.600;10.040;2022-10-15T14:38:02;100465.75;;;18.27
74043;BMP280;62384;53.600;10.040;2022-10-15T14:40:29;100465.78;;;18.23
74043;BMP280;62384;53.600;10.040;2022-10-15T14:45:24;100456.75;;;18.30
74043;BMP280;62384;53.600;10.040;2022-10-15T14:47:53;100455.69;;;18.24
74043;BMP280;62384;53.600;10.040;2022-10-15T14:50:28;100444.88;;;18.20
74043;BMP280;62384;53.600;10.040;2022-10-15T14:52:54;100443.22;;;18.26
74043;BMP280;62384;53.600;10.040;2022-10-15T14:55:32;100446.59;;;18.34
74043;BMP280;62384;53.600;10.040;2022-10-15T14:58:07;100457.84;;;18.32
74043;BMP280;62384;53.600;10.040;2022-10-15T15:00:38;100452.41;;;18.32
74043;BMP280;62384;53.600;10.040;2022-10-15T15:03:05;100452.03;;;18.34
74043;BMP280;62384;53.600;10.040;2022-10-15T15:05:46;100457.53;;;18.30
74043;BMP280;62384;53.600;10.040;2022-10-15T15:08:28;100460.03;;;18.21
74043;BMP280;62384;53.600;10.040;2022-10-15T15:10:55;100443.41;;;18.16
74043;BMP280;62384;53.600;10.040;2022-10-15T15:13:22;100441.56;;;18.09
74043;BMP280;62384;53.600;10.040;2022-10-15T15:15:48;100447.47;;;18.04
74043;BMP280;62384;53.600;10.040;2022-10-15T15:18:14;100440.94;;;18.02
74043;BMP280;62384;53.600;10.040;2022-10-15T15:20:40;100432.47;;;17.96
74043;BMP280;62384;53.600;10.040;2022-10-15T15:23:15;100438.16;;;18.05
74043;BMP280;62384;53.600;10.040;2022-10-15T15:25:42;100416.66;;;17.91
74043;BMP280;62384;53.600;10.040;2022-10-15T15:28:13;100435.19;;;17.96
74043;BMP280;62384;53.600;10.040;2022-10-15T15:30:40;100423.97;;;17.94
74043;BMP280;62384;53.600;10.040;2022-10-15T15:33:10;100417.47;;;17.88
74043;BMP280;62384;53.600;10.040;2022-10-15T15:38:25;100428.78;;;17.83
74043;BMP280;62384;53.600;10.040;2022-10-15T15:40:59;100431.16;;;17.81
74043;BMP280;62384;53.600;10.040;2022-10-15T15:43:29;100419.91;;;17.82
74043;BMP280;62384;53.600;10.040;2022-10-15T15:45:54;100424.75;;;17.68
74043;BMP280;62384;53.600;10.040;2022-10-15T15:48:21;100404.66;;;17.65
74043;BMP280;62384;53.600;10.040;2022-10-15T15:50:46;100409.25;;;17.68
74043;BMP280;62384;53.600;10.040;2022-10-15T15:53:21;100401.59;;;17.60
74043;BMP280;62384;53.600;10.040;2022-10-15T15:55:51;100361.56;;;17.41
74043;BMP280;62384;53.600;10.040;2022-10-15T15:58:16;100348.03;;;17.37
74043;BMP280;62384;53.600;10.040;2022-10-15T16:00:41;100330.84;;;17.21
74043;BMP280;62384;53.600;10.040;2022-10-15T16:03:09;100298.28;;;17.21
74043;BMP280;62384;53.600;10.040;2022-10-15T16:05:36;100307.78;;;17.36
74043;BMP280;62384;53.600;10.040;2022-10-15T16:08:03;100289.84;;;17.15
74043;BMP280;62384;53.600;10.040;2022-10-15T16:10:28;100285.34;;;17.05
74043;BMP280;62384;53.600;10.040;2022-10-15T16:12:54;100272.16;;;17.03
74043;BMP280;62384;53.600;10.040;2022-10-15T16:15:20;100253.00;;;16.91
74043;BMP280;62384;53.600;10.040;2022-10-15T16:17:52;100265.63;;;17.01
74043;BMP280;62384;53.600;10.040;2022-10-15T16:20:18;100243.00;;;16.84
74043;BMP280;62384;53.600;10.040;2022-10-15T16:22:44;100251.78;;;16.95
74043;BMP280;62384;53.600;10.040;2022-10-15T16:25:13;100245.28;;;16.89
74043;BMP280;62384;53.600;10.040;2022-10-15T16:27:38;100247.56;;;16.91
74043;BMP280;62384;53.600;10.040;2022-10-15T16:30:03;100254.97;;;16.87
74043;BMP280;62384;53.600;10.040;2022-10-15T16:32:29;100231.28;;;16.64
74043;BMP280;62384;53.600;10.040;2022-10-15T16:34:54;100232.00;;;16.68
74043;BMP280;62384;53.600;10.040;2022-10-15T16:37:22;100233.03;;;16.78
74043;BMP280;62384;53.600;10.040;2022-10-15T16:39:48;100223.53;;;16.66
74043;BMP280;62384;53.600;10.040;2022-10-15T16:42:14;100232.63;;;16.79
74043;BMP280;62384;53.600;10.040;2022-10-15T16:44:39;100231.56;;;16.73
74043;BMP280;62384;53.600;10.040;2022-10-15T16:47:05;100238.19;;;16.69
74043;BMP280;62384;53.600;10.040;2022-10-15T16:49:38;100234.94;;;16.77
74043;BMP280;62384;53.600;10.040;2022-10-15T16:52:03;100223.91;;;16.65
74043;BMP280;62384;53.600;10.040;2022-10-15T16:54:32;100227.72;;;16.67
74043;BMP280;62384;53.600;10.040;2022-10-15T16:56:57;100217.03;;;16.60
74043;BMP280;62384;53.600;10.040;2022-10-15T16:59:23;100221.84;;;16.76
74043;BMP280;62384;53.600;10.040;2022-10-15T17:01:51;100225.03;;;16.67
74043;BMP280;62384;53.600;10.040;2022-10-15T17:04:22;100213.13;;;16.61
74043;BMP280;62384;53.600;10.040;2022-10-15T17:06:53;100231.66;;;16.66
74043;BMP280;62384;53.600;10.040;2022-10-15T17:09:18;100232.91;;;16.58
74043;BMP280;62384;53.600;10.040;2022-10-15T17:11:44;100216.25;;;16.60
74043;BMP280;62384;53.600;10.040;2022-10-15T17:14:14;100203.50;;;16.57
74043;BMP280;62384;53.600;10.040;2022-10-15T17:16:48;100231.19;;;16.71
74043;BMP280;62384;53.600;10.040;2022-10-15T17:19:17;100223.09;;;16.68
74043;BMP280;62384;53.600;10.040;2022-10-15T17:21:42;100230.00;;;16.72
74043;BMP280;62384;53.600;10.040;2022-10-15T17:24:15;100224.63;;;16.69
74043;BMP280;62384;53.600;10.040;2022-10-15T17:26:44;100227.44;;;16.62
74043;BMP280;62384;53.600;10.040;2022-10-15T17:29:22;100230.41;;;16.71
74043;BMP280;62384;53.600;10.040;2022-10-15T17:31:49;100211.13;;;16.65
74043;BMP280;62384;53.600;10.040;2022-10-15T17:34:16;100209.66;;;16.61
74043;BMP280;62384;53.600;10.040;2022-10-15T17:36:44;100198.91;;;16.54
74043;BMP280;62384;53.600;10.040;2022-10-15T17:39:25;100188.50;;;16.49
74043;BMP280;62384;53.600;10.040;2022-10-15T17:41:50;100190.44;;;16.48
74043;BMP280;62384;53.600;10.040;2022-10-15T17:44:16;100160.44;;;16.36
74043;BMP280;62384;53.600;10.040;2022-10-15T17:46:41;100164.69;;;16.37
74043;BMP280;62384;53.600;10.040;2022-10-15T17:49:08;100162.78;;;16.34
74043;BMP280;62384;53.600;10.040;2022-10-15T17:51:35;100165.50;;;16.34
74043;BMP280;62384;53.600;10.040;2022-10-15T17:54:00;100166.34;;;16.27
74043;BMP280;62384;53.600;10.040;2022-10-15T17:56:32;100160.97;;;16.24
74043;BMP280;62384;53.600;10.040;2022-10-15T17:59:13;100146.44;;;16.10
74043;BMP280;62384;53.600;10.040;2022-10-15T18:01:41;100146.09;;;16.05
74043;BMP280;62384;53.600;10.040;2022-10-15T18:04:09;100140.56;;;16.15
74043;BMP280;62384;53.600;10.040;2022-10-15T18:06:36;100139.97;;;16.01
74043;BMP280;62384;53.600;10.040;2022-10-15T18:09:02;100133.31;;;16.05
74043;BMP280;62384;53.600;10.040;2022-10-15T18:11:31;100138.72;;;16.09
74043;BMP280;62384;53.600;10.040;2022-10-15T18:13:57;100139.19;;;16.04
74043;BMP280;62384;53.600;10.040;2022-10-15T18:16:22;100137.06;;;16.15
74043;BMP280;62384;53.600;10.040;2022-10-15T18:19:00;100127.53;;;16.07
74043;BMP280;62384;53.600;10.040;2022-10-15T18:21:26;100119.47;;;16.00
74043;BMP280;62384;53.600;10.040;2022-10-15T18:23:52;100124.00;;;16.10
74043;BMP280;62384;53.600;10.040;2022-10-15T18:26:21;100136.34;;;16.11
74043;BMP280;62384;53.600;10.040;2022-10-15T18:28:48;100118.25;;;16.04
74043;BMP280;62384;53.600;10.040;2022-10-15T18:31:14;100188.56;;;16.98
74043;BMP280;62384;53.600;10.040;2022-10-15T18:33:42;100177.13;;;16.31
74043;BMP280;62384;53.600;10.040;2022-10-15T18:36:13;100142.94;;;16.10
74043;BMP280;62384;53.600;10.040;2022-10-15T18:38:39;100142.16;;;16.13
74043;BMP280;62384;53.600;10.040;2022-10-15T18:41:30;100138.97;;;16.18
74043;BMP280;62384;53.600;10.040;2022-10-15T18:43:59;100149.00;;;16.21
74043;BMP280;62384;53.600;10.040;2022-10-15T18:46:25;100145.53;;;16.21
74043;BMP280;62384;53.600;10.040;2022-10-15T18:48:59;100152.09;;;16.23
74043;BMP280;62384;53.600;10.040;2022-10-15T18:51:26;100154.06;;;16.19
74043;BMP280;62384;53.600;10.040;2022-10-15T18:54:22;100160.47;;;16.32